Time;durP1;ratioP1;P1;durP2;ratioP2;P2;SDS_P1;SDS_P2;PMS_P1;PMS_P2;Temp;Humidity;BMP_temperature;BMP_pressure;BME280_temperature;BME280_humidity;BME280_pressure;Samples;Min_cycle;Max_cycle;Signal;HPM_P1;HPM_P2
2022/04/22 00:01:28;;;;;;;7.03;6.33;;;11.80;65.60;;;;;;5107668;28;20214;-83
2022/04/22 00:03:54;;;;;;;8.10;7.37;;;11.90;65.60;;;;;;5091196;28;20195;-82
2022/04/22 00:06:20;;;;;;;7.50;6.70;;;11.90;65.50;;;;;;5085222;28;20196;-83
2022/04/22 00:08:45;;;;;;;7.77;6.97;;;11.80;65.70;;;;;;5095739;28;20216;-83
2022/04/22 00:11:29;;;;;;;7.77;6.43;;;11.80;66.20;;;;;;5099663;28;20282;-83
2022/04/22 00:14:00;;;;;;;8.23;7.53;;;11.80;66.10;;;;;;5094771;28;20192;-83
2022/04/22 00:16:27;;;;;;;9.07;6.97;;;11.70;66.60;;;;;;5098236;28;20207;-83
2022/04/22 00:18:57;;;;;;;8.30;7.37;;;11.70;66.90;;;;;;5103775;28;20233;-83
2022/04/22 00:21:23;;;;;;;7.87;6.90;;;11.70;66.90;;;;;;5111670;28;20258;-83
2022/04/22 00:23:50;;;;;;;8.07;7.37;;;11.70;67.00;;;;;;5104475;28;20183;-83
2022/04/22 00:26:20;;;;;;;8.50;7.70;;;11.70;66.80;;;;;;5086619;28;20233;-83
2022/04/22 00:28:46;;;;;;;8.87;8.13;;;11.80;67.10;;;;;;5086361;28;20211;-83
2022/04/22 00:31:12;;;;;;;9.17;8.37;;;11.80;66.50;;;;;;5091087;28;20337;-83
2022/04/22 00:33:38;;;;;;;8.77;7.87;;;11.80;66.80;;;;;;5095645;28;20208;-83
2022/04/22 00:36:04;;;;;;;9.10;8.40;;;11.70;67.20;;;;;;5091804;28;20182;-83
2022/04/22 00:38:29;;;;;;;9.30;8.50;;;11.60;67.80;;;;;;5097836;28;20229;-83
2022/04/22 00:40:56;;;;;;;8.97;8.07;;;11.60;68.00;;;;;;5094926;28;20278;-83
2022/04/22 00:43:25;;;;;;;9.30;8.47;;;11.60;68.20;;;;;;5092800;28;20193;-83
2022/04/22 00:45:53;;;;;;;8.77;7.97;;;11.50;68.70;;;;;;5088265;28;20646;-83
2022/04/22 00:48:19;;;;;;;9.87;8.97;;;11.70;68.00;;;;;;5082887;28;20242;-83
2022/04/22 00:50:46;;;;;;;9.77;8.87;;;11.70;68.00;;;;;;5091628;28;20252;-83
2022/04/22 00:53:13;;;;;;;8.70;7.90;;;11.80;67.50;;;;;;5089880;28;20184;-83
2022/04/22 00:55:44;;;;;;;10.13;9.23;;;11.70;68.10;;;;;;5097883;28;20199;-83
2022/04/22 00:58:11;;;;;;;10.13;9.23;;;11.70;68.20;;;;;;5089424;28;20203;-83
2022/04/22 01:00:37;;;;;;;10.40;9.40;;;11.50;69.20;;;;;;5094740;28;20195;-83
2022/04/22 01:03:05;;;;;;;10.50;9.47;;;11.40;70.20;;;;;;5098701;28;20211;-83
2022/04/22 01:11:02;;;;;;;11.90;10.70;;;11.10;72.20;;;;;;5089279;28;20197;-83
2022/04/22 01:13:28;;;;;;;11.80;10.70;;;10.90;72.90;;;;;;5091256;28;20187;-83
2022/04/22 01:15:54;;;;;;;11.30;10.20;;;10.90;73.20;;;;;;5070472;28;20547;-83
2022/04/22 01:18:20;;;;;;;11.73;10.63;;;10.90;73.30;;;;;;5093215;28;20213;-83
2022/04/22 01:20:46;;;;;;;11.93;10.73;;;10.90;73.80;;;;;;5094749;28;20199;-83
2022/04/22 01:23:11;;;;;;;11.93;10.73;;;10.90;73.90;;;;;;5089592;28;20202;-82
2022/04/22 01:25:37;;;;;;;12.27;11.07;;;10.80;74.50;;;;;;5093122;28;20187;-83
2022/04/22 01:28:03;;;;;;;14.10;10.83;;;10.70;75.40;;;;;;5098193;28;20211;-83
2022/04/22 01:30:29;;;;;;;12.47;11.37;;;10.60;75.70;;;;;;5089223;28;20238;-83
2022/04/22 01:32:56;;;;;;;11.60;10.53;;;10.60;75.70;;;;;;5086398;28;20233;-82
2022/04/22 01:35:23;;;;;;;11.63;10.57;;;10.60;76.00;;;;;;5091523;28;20180;-83
2022/04/22 01:37:49;;;;;;;11.90;10.77;;;10.60;76.20;;;;;;5091014;28;20191;-82
2022/04/22 01:40:15;;;;;;;12.03;10.83;;;10.60;76.10;;;;;;5100412;28;20189;-82
2022/04/22 01:42:42;;;;;;;11.80;10.60;;;10.60;76.00;;;;;;5077984;28;20215;-83
2022/04/22 01:45:09;;;;;;;12.77;11.57;;;10.70;75.60;;;;;;5097390;28;20175;-83
2022/04/22 01:47:35;;;;;;;14.00;12.00;;;10.80;75.20;;;;;;5094910;28;20283;-83
2022/04/22 01:50:01;;;;;;;14.73;12.00;;;10.70;75.70;;;;;;5095662;28;20210;-83
2022/04/22 01:52:28;;;;;;;12.60;11.40;;;10.50;76.90;;;;;;5103091;28;20207;-83
2022/04/22 01:54:55;;;;;;;11.53;10.40;;;10.40;77.90;;;;;;5107675;28;20187;-83
2022/04/22 01:57:23;;;;;;;12.57;11.33;;;10.50;77.60;;;;;;5097727;28;20633;-82
2022/04/22 01:59:50;;;;;;;13.83;12.43;;;10.40;77.30;;;;;;5095701;28;20490;-82
2022/04/22 02:02:17;;;;;;;13.77;12.47;;;10.50;78.00;;;;;;5099471;28;20437;-82
2022/04/22 02:04:43;;;;;;;13.93;12.43;;;10.40;78.30;;;;;;5102073;28;20196;-82
2022/04/22 02:07:09;;;;;;;12.70;11.50;;;10.40;78.60;;;;;;5105543;28;20267;-83
2022/04/22 02:09:35;;;;;;;13.07;11.77;;;10.20;79.50;;;;;;5090472;28;20183;-82
2022/04/22 02:12:01;;;;;;;13.53;12.13;;;10.20;79.80;;;;;;5095750;28;20218;-84
2022/04/22 02:14:26;;;;;;;14.77;13.27;;;10.30;79.50;;;;;;5086778;28;20817;-84
2022/04/22 02:16:53;;;;;;;13.37;12.07;;;10.20;80.00;;;;;;5069818;28;20198;-83
2022/04/22 02:19:19;;;;;;;13.73;12.43;;;10.10;80.60;;;;;;5080016;28;20225;-84
2022/04/22 02:21:45;;;;;;;12.57;11.27;;;10.20;80.40;;;;;;5093802;28;20725;-80
2022/04/22 02:24:10;;;;;;;13.93;12.43;;;10.00;81.30;;;;;;5070872;28;20191;-82
2022/04/22 02:29:22;;;;;;;12.67;11.37;;;9.90;81.70;;;;;;5088541;28;20198;-82
2022/04/22 02:31:48;;;;;;;13.30;11.97;;;10.10;80.80;;;;;;5077790;28;20217;-82
2022/04/22 02:34:14;;;;;;;12.90;11.67;;;10.10;80.50;;;;;;5097048;28;20182;-82
2022/04/22 02:36:41;;;;;;;15.13;12.57;;;10.00;81.20;;;;;;5097598;28;20184;-82
2022/04/22 02:39:07;;;;;;;13.67;12.27;;;9.90;81.60;;;;;;5088317;28;20266;-82
2022/04/22 02:47:01;;;;;;;14.07;12.17;;;10.10;80.60;;;;;;5091559;28;20214;-82
2022/04/22 02:49:26;;;;;;;13.47;12.07;;;10.10;80.80;;;;;;5116452;28;20182;-82
2022/04/22 02:51:52;;;;;;;12.97;11.70;;;10.00;82.00;;;;;;5089235;28;20218;-83
2022/04/22 02:54:18;;;;;;;12.70;11.13;;;9.90;81.70;;;;;;5098541;28;20188;-83
2022/04/22 02:56:44;;;;;;;13.63;12.33;;;9.90;81.90;;;;;;5089951;28;20244;-82
2022/04/22 02:59:10;;;;;;;13.57;12.30;;;9.90;81.90;;;;;;5095821;28;20183;-82
2022/04/22 03:01:36;;;;;;;13.53;11.47;;;9.90;82.20;;;;;;5097638;28;20211;-82
2022/04/22 03:04:01;;;;;;;12.17;11.00;;;10.00;81.90;;;;;;5093821;28;20225;-81
2022/04/22 03:06:27;;;;;;;12.70;11.47;;;10.10;80.80;;;;;;5073459;28;20220;-83
2022/04/22 03:08:53;;;;;;;14.50;13.07;;;10.20;79.80;;;;;;5094407;28;20290;-83
2022/04/22 03:11:21;;;;;;;14.17;12.73;;;10.30;79.80;;;;;;5074111;28;20287;-82
2022/04/22 03:13:51;;;;;;;14.43;13.13;;;10.10;80.60;;;;;;5072957;28;20191;-83
2022/04/22 03:16:18;;;;;;;13.20;11.97;;;10.00;80.70;;;;;;5091417;28;20219;-82
2022/04/22 03:18:44;;;;;;;14.77;13.27;;;10.10;80.40;;;;;;5095000;28;20190;-82
2022/04/22 03:21:10;;;;;;;15.23;13.73;;;10.00;81.10;;;;;;5091381;28;20293;-82
2022/04/22 03:23:35;;;;;;;14.97;13.47;;;9.90;81.80;;;;;;5095598;28;20645;-83
2022/04/22 03:26:01;;;;;;;14.80;13.50;;;9.90;82.20;;;;;;5099031;28;20256;-83
2022/04/22 03:28:27;;;;;;;14.97;13.57;;;9.80;82.40;;;;;;5095453;28;20693;-83
2022/04/22 03:30:53;;;;;;;14.50;12.87;;;9.80;83.20;;;;;;5073979;28;20192;-83
2022/04/22 03:33:19;;;;;;;15.70;14.13;;;9.80;83.20;;;;;;5099348;28;20187;-83
2022/04/22 03:35:50;;;;;;;15.60;14.13;;;9.70;83.40;;;;;;5081926;28;20449;-83
2022/04/22 03:38:19;;;;;;;18.93;14.53;;;9.80;83.10;;;;;;5087302;28;20192;-82
2022/04/22 03:40:45;;;;;;;16.80;15.10;;;9.70;83.70;;;;;;5103213;28;20207;-82
2022/04/22 03:43:11;;;;;;;15.40;13.73;;;9.60;85.10;;;;;;5110195;28;20273;-82
2022/04/22 03:45:37;;;;;;;15.73;14.23;;;9.60;85.20;;;;;;5106035;28;20178;-83
2022/04/22 03:48:06;;;;;;;17.07;15.20;;;9.60;85.20;;;;;;5085623;28;20225;-83
2022/04/22 03:50:31;;;;;;;16.43;14.63;;;9.60;86.10;;;;;;5097770;28;20193;-83
2022/04/22 03:52:57;;;;;;;17.20;14.97;;;9.50;86.80;;;;;;5095155;28;20294;-83
2022/04/22 03:55:23;;;;;;;17.07;15.37;;;9.60;85.90;;;;;;5081573;28;20199;-82
2022/04/22 04:00:33;;;;;;;18.13;16.33;;;9.60;85.70;;;;;;5097301;28;20288;-82
2022/04/22 04:02:59;;;;;;;17.83;16.07;;;9.70;85.60;;;;;;5102760;28;20210;-83
2022/04/22 04:05:25;;;;;;;18.43;16.57;;;9.60;86.00;;;;;;5103199;28;20679;-82
2022/04/22 04:07:50;;;;;;;18.20;16.40;;;9.60;85.90;;;;;;5088708;28;20222;-82
2022/04/22 04:15:59;;;;;;;17.90;16.10;;;9.60;85.80;;;;;;5094300;28;20222;-83
2022/04/22 04:18:31;;;;;;;17.93;16.13;;;9.50;86.30;;;;;;5091823;28;20210;-82
2022/04/22 04:23:43;;;;;;;18.97;17.07;;;9.30;88.70;;;;;;5100812;28;20321;-82
2022/04/22 04:26:09;;;;;;;19.30;17.20;;;9.40;89.20;;;;;;5086670;28;20191;-82
2022/04/22 04:28:36;;;;;;;19.00;17.20;;;9.40;87.80;;;;;;5076712;28;20383;-83
2022/04/22 04:31:03;;;;;;;20.33;16.70;;;9.50;87.50;;;;;;5095987;28;20175;-82
2022/04/22 04:33:29;;;;;;;19.27;17.43;;;9.60;86.50;;;;;;5104363;28;20190;-81
2022/04/22 04:35:56;;;;;;;18.43;16.57;;;9.70;85.90;;;;;;5092200;28;20176;-82
2022/04/22 04:38:22;;;;;;;19.60;17.57;;;9.80;85.30;;;;;;5098891;28;20205;-81
2022/04/22 04:40:48;;;;;;;19.07;17.03;;;9.80;84.90;;;;;;5105038;28;20194;-83
2022/04/22 04:43:16;;;;;;;17.27;15.67;;;9.80;84.90;;;;;;5105749;28;20787;-83
2022/04/22 04:45:42;;;;;;;18.10;16.30;;;9.90;83.70;;;;;;5090464;28;20179;-81
2022/04/22 04:48:08;;;;;;;18.20;16.40;;;10.00;83.30;;;;;;5100722;28;20207;-83
2022/04/22 04:50:34;;;;;;;29.03;17.63;;;9.90;83.70;;;;;;5103084;28;20182;-82
2022/04/22 04:52:59;;;;;;;19.87;17.80;;;9.90;83.60;;;;;;5096030;28;20270;-83
2022/04/22 04:55:26;;;;;;;18.47;16.67;;;9.80;84.70;;;;;;5101964;28;20178;-83
2022/04/22 04:57:51;;;;;;;18.33;16.63;;;9.70;85.60;;;;;;5096491;28;20187;-81
2022/04/22 05:00:21;;;;;;;19.33;17.27;;;9.70;85.30;;;;;;5110612;28;20206;-81
2022/04/22 05:02:47;;;;;;;19.20;17.40;;;9.80;84.60;;;;;;5107202;28;20203;-81
2022/04/22 05:05:13;;;;;;;17.40;15.70;;;9.70;85.00;;;;;;5105865;28;20255;-82
2022/04/22 05:07:50;;;;;;;18.60;16.70;;;9.60;86.20;;;;;;5098750;28;20213;-82
2022/04/22 05:10:18;;;;;;;17.70;15.90;;;9.60;86.00;;;;;;5100490;28;20191;-82
2022/04/22 05:12:46;;;;;;;17.37;15.67;;;9.60;85.80;;;;;;5085025;28;20203;-83
2022/04/22 05:15:11;;;;;;;19.37;16.47;;;9.60;85.80;;;;;;5095714;28;20275;-82
2022/04/22 05:17:39;;;;;;;17.63;15.70;;;9.70;85.60;;;;;;5092620;28;20196;-82
2022/04/22 05:20:05;;;;;;;17.83;16.23;;;9.70;85.50;;;;;;5092286;28;20191;-82
2022/04/22 05:22:31;;;;;;;18.33;16.33;;;9.70;85.30;;;;;;5072151;28;20234;-83
2022/04/22 05:24:57;;;;;;;18.50;16.60;;;9.70;85.40;;;;;;5080908;28;20257;-84
2022/04/22 05:27:22;;;;;;;17.50;15.73;;;9.60;85.90;;;;;;5072116;28;20218;-83
2022/04/22 05:32:38;;;;;;;19.03;16.77;;;9.60;86.00;;;;;;5083703;28;20215;-83
2022/04/22 05:35:05;;;;;;;17.63;15.93;;;9.70;85.60;;;;;;5072245;28;20312;-83
2022/04/22 05:37:51;;;;;;;17.97;16.17;;;9.70;85.60;;;;;;5111094;28;20669;-83
2022/04/22 05:40:22;;;;;;;16.90;15.20;;;9.70;85.70;;;;;;5091398;28;20198;-83
2022/04/22 05:42:50;;;;;;;18.23;16.33;;;9.70;85.60;;;;;;5096872;28;20202;-84
2022/04/22 05:45:17;;;;;;;17.00;15.40;;;9.80;84.70;;;;;;5091048;28;20179;-83
2022/04/22 05:47:43;;;;;;;17.17;15.47;;;9.90;84.10;;;;;;5076515;28;20218;-83
2022/04/22 05:50:12;;;;;;;17.97;16.27;;;9.80;85.10;;;;;;5098026;28;20214;-83
2022/04/22 05:52:39;;;;;;;18.20;16.40;;;9.70;85.90;;;;;;5092204;28;20293;-83
2022/04/22 05:55:11;;;;;;;18.33;16.50;;;9.70;86.20;;;;;;5089971;28;20203;-83
2022/04/22 05:57:37;;;;;;;18.23;16.00;;;9.70;86.40;;;;;;5073791;28;20238;-84
2022/04/22 06:00:24;;;;;;;18.37;16.43;;;9.70;86.30;;;;;;5094410;28;20577;-83
2022/04/22 06:02:51;;;;;;;17.93;16.07;;;9.70;86.20;;;;;;5091596;28;20222;-83
2022/04/22 06:05:20;;;;;;;18.03;16.13;;;9.80;85.70;;;;;;5095299;28;20183;-83
2022/04/22 06:07:46;;;;;;;18.23;16.53;;;10.00;84.70;;;;;;5078868;28;20281;-83
2022/04/22 06:10:31;;;;;;;19.10;17.20;;;9.90;84.70;;;;;;5084672;28;20187;-82
2022/04/22 06:12:58;;;;;;;18.93;17.03;;;10.00;84.40;;;;;;5088541;28;20199;-83
2022/04/22 06:15:24;;;;;;;18.50;16.70;;;10.10;84.40;;;;;;5093320;28;20175;-83
2022/04/22 06:17:50;;;;;;;19.23;17.23;;;10.10;84.60;;;;;;5076887;28;20246;-83
2022/04/22 06:20:16;;;;;;;20.73;18.63;;;10.20;84.20;;;;;;5097391;28;20186;-83
2022/04/22 06:22:42;;;;;;;19.63;17.67;;;10.10;84.70;;;;;;5087076;28;20247;-83
2022/04/22 06:25:09;;;;;;;19.03;17.23;;;10.00;84.60;;;;;;5097842;28;20191;-83
2022/04/22 06:27:39;;;;;;;19.60;17.60;;;10.10;84.80;;;;;;5077290;28;20233;-83
2022/04/22 06:30:11;;;;;;;21.40;19.10;;;10.20;83.60;;;;;;5073296;28;20179;-82
2022/04/22 06:32:39;;;;;;;21.23;18.10;;;10.20;84.10;;;;;;5098565;28;20213;-83
2022/04/22 06:35:06;;;;;;;20.80;18.63;;;10.00;85.30;;;;;;5108883;28;20167;-82
2022/04/22 06:37:40;;;;;;;22.80;19.20;;;9.90;85.20;;;;;;5105276;28;20206;-82
2022/04/22 06:45:47;;;;;;;22.40;20.07;;;10.10;83.40;;;;;;5097136;28;20194;-83
2022/04/22 06:48:17;;;;;;;21.30;19.17;;;10.10;83.70;;;;;;5081920;28;20278;-83
2022/04/22 06:50:49;;;;;;;23.27;21.00;;;10.10;83.70;;;;;;5105284;28;20185;-83
2022/04/22 06:53:17;;;;;;;20.90;18.80;;;10.30;82.70;;;;;;5079857;28;20185;-83
2022/04/22 06:55:44;;;;;;;21.10;19.00;;;10.20;82.80;;;;;;5098693;28;20190;-84
2022/04/22 06:58:12;;;;;;;21.07;18.97;;;10.10;83.80;;;;;;5084255;28;20195;-84
2022/04/22 07:00:39;;;;;;;22.00;19.80;;;10.30;82.90;;;;;;5084228;28;20214;-85
2022/04/22 07:03:07;;;;;;;22.47;19.43;;;10.40;82.30;;;;;;5102006;28;20199;-84
2022/04/22 07:05:34;;;;;;;22.53;20.07;;;10.40;82.20;;;;;;5099201;28;20658;-84
2022/04/22 07:08:02;;;;;;;21.47;18.57;;;10.40;81.60;;;;;;5095216;28;20215;-84
2022/04/22 07:10:29;;;;;;;22.13;18.90;;;10.40;81.80;;;;;;5082834;28;20195;-84
2022/04/22 07:12:57;;;;;;;21.53;19.33;;;10.40;82.20;;;;;;5103653;28;20263;-84
2022/04/22 07:15:23;;;;;;;20.50;18.30;;;10.60;81.00;;;;;;5102938;28;20203;-85
2022/04/22 07:17:49;;;;;;;23.10;20.77;;;10.70;80.90;;;;;;5103021;28;20202;-83
2022/04/22 07:20:15;;;;;;;21.57;19.27;;;10.80;80.40;;;;;;5099338;28;20184;-82
2022/04/22 07:22:42;;;;;;;21.87;19.73;;;10.90;80.60;;;;;;5080050;28;170888;-84
2022/04/22 07:25:09;;;;;;;21.60;19.30;;;11.00;79.10;;;;;;5081059;28;20195;-84
2022/04/22 07:27:38;;;;;;;21.13;18.97;;;11.10;78.60;;;;;;5104917;28;20865;-84
2022/04/22 07:30:08;;;;;;;21.53;19.07;;;11.20;77.40;;;;;;5100419;28;20193;-84
2022/04/22 07:32:37;;;;;;;21.43;19.20;;;11.10;79.20;;;;;;5105845;28;20285;-84
2022/04/22 07:35:05;;;;;;;22.73;20.37;;;11.20;77.20;;;;;;5098126;28;20186;-83
2022/04/22 07:37:34;;;;;;;21.80;19.17;;;11.50;75.60;;;;;;5084674;28;20202;-84
2022/04/22 07:40:00;;;;;;;22.17;19.93;;;11.50;75.50;;;;;;5101133;28;20179;-82
2022/04/22 07:42:28;;;;;;;20.73;18.53;;;11.60;74.10;;;;;;5100477;28;20219;-82
2022/04/22 07:47:42;;;;;;;21.23;19.13;;;11.90;74.00;;;;;;5098876;28;20241;-84
2022/04/22 07:50:08;;;;;;;21.87;19.77;;;12.20;71.90;;;;;;5105501;28;20207;-83
2022/04/22 07:52:36;;;;;;;20.83;18.83;;;12.10;71.90;;;;;;5087390;28;20215;-82
2022/04/22 07:55:02;;;;;;;20.90;18.90;;;12.20;71.30;;;;;;5095750;28;20183;-82
2022/04/22 07:57:29;;;;;;;23.93;19.50;;;12.40;70.30;;;;;;5079094;28;20283;-82
2022/04/22 07:59:55;;;;;;;21.07;19.07;;;12.40;69.90;;;;;;5097665;28;20182;-82
2022/04/22 08:02:21;;;;;;;20.63;18.60;;;12.60;69.40;;;;;;5079665;28;20221;-81
2022/04/22 08:04:47;;;;;;;21.57;19.47;;;12.60;68.50;;;;;;5105194;28;20238;-81
2022/04/22 08:07:13;;;;;;;21.80;19.50;;;12.80;68.50;;;;;;5098912;28;20193;-81
2022/04/22 08:09:39;;;;;;;23.30;21.10;;;12.90;67.80;;;;;;5098445;28;20218;-82
2022/04/22 08:12:06;;;;;;;21.37;19.27;;;12.90;66.90;;;;;;5090064;28;20238;-81
2022/04/22 08:14:32;;;;;;;20.80;18.90;;;13.00;66.60;;;;;;5066530;28;20242;-82
2022/04/22 08:17:01;;;;;;;21.17;19.03;;;12.90;65.90;;;;;;5096890;28;20183;-83
2022/04/22 08:19:27;;;;;;;20.87;18.70;;;12.90;66.70;;;;;;5087312;28;20180;-83
2022/04/22 08:21:52;;;;;;;20.77;18.87;;;12.90;66.30;;;;;;5093800;28;20309;-83
2022/04/22 08:24:18;;;;;;;21.83;19.63;;;13.00;66.30;;;;;;5093127;28;20548;-84
2022/04/22 08:26:45;;;;;;;21.03;18.93;;;13.00;65.20;;;;;;5095283;28;20220;-83
2022/04/22 08:29:11;;;;;;;22.00;19.90;;;13.10;66.30;;;;;;5093997;28;20281;-82
2022/04/22 08:31:37;;;;;;;18.83;17.23;;;13.10;65.70;;;;;;5075882;28;20214;-84
2022/04/22 08:34:03;;;;;;;19.50;17.70;;;13.40;64.40;;;;;;5092186;28;20258;-83
2022/04/22 08:36:30;;;;;;;19.97;17.93;;;13.80;63.10;;;;;;5102503;28;20191;-84
2022/04/22 08:38:59;;;;;;;18.70;17.10;;;14.00;61.80;;;;;;5095750;28;20194;-82
2022/04/22 08:41:26;;;;;;;19.27;17.47;;;14.10;61.80;;;;;;5101230;28;20221;-83
2022/04/22 08:43:56;;;;;;;19.37;17.57;;;14.20;61.60;;;;;;5096388;28;20187;-84
2022/04/22 08:51:54;;;;;;;19.17;17.40;;;14.60;60.10;;;;;;5099819;28;20235;-83
2022/04/22 08:54:20;;;;;;;19.70;18.00;;;14.60;60.30;;;;;;5103543;28;20249;-83
2022/04/22 08:56:49;;;;;;;19.93;17.97;;;14.70;58.20;;;;;;5073672;28;20192;-82
2022/04/22 08:59:14;;;;;;;18.80;17.10;;;14.90;58.80;;;;;;5093770;28;20663;-83
2022/04/22 09:01:40;;;;;;;19.77;17.80;;;15.00;57.50;;;;;;5066076;28;20227;-83
2022/04/22 09:04:06;;;;;;;17.47;15.77;;;15.10;58.20;;;;;;5086440;28;20658;-83
2022/04/22 09:06:32;;;;;;;19.03;17.40;;;15.20;57.70;;;;;;5104708;28;20193;-78
2022/04/22 09:08:58;;;;;;;109.63;24.53;;;15.50;57.80;;;;;;5098183;28;20253;-82
2022/04/22 09:11:24;;;;;;;18.17;16.47;;;15.70;55.90;;;;;;5092757;28;20228;-81
2022/04/22 09:13:50;;;;;;;18.27;16.77;;;15.80;55.40;;;;;;5077730;28;20210;-79
2022/04/22 09:16:20;;;;;;;17.87;16.13;;;16.00;55.00;;;;;;5099817;28;20277;-82
2022/04/22 09:18:45;;;;;;;17.93;15.87;;;16.20;54.30;;;;;;5080112;28;20191;-81
2022/04/22 09:21:15;;;;;;;18.27;15.80;;;16.20;52.90;;;;;;5091806;28;20645;-82
2022/04/22 09:23:41;;;;;;;28.37;18.10;;;16.10;53.70;;;;;;5095842;28;20179;-83
2022/04/22 09:26:24;;;;;;;18.27;16.37;;;15.90;53.90;;;;;;5090827;28;20189;-82
2022/04/22 09:29:05;;;;;;;17.47;15.97;;;16.00;55.30;;;;;;5088544;28;20202;-82
2022/04/22 09:31:48;;;;;;;17.37;15.67;;;15.80;55.10;;;;;;5095696;28;20234;-81
2022/04/22 09:34:14;;;;;;;17.33;15.77;;;15.80;54.60;;;;;;5092257;28;20172;-82
2022/04/22 09:44:59;;;;;;;17.70;16.10;;;16.10;54.10;;;;;;5089649;28;20201;-84
2022/04/22 09:47:27;;;;;;;16.80;15.30;;;16.20;54.10;;;;;;5097449;28;20193;-82
2022/04/22 09:49:53;;;;;;;18.07;16.33;;;16.20;53.30;;;;;;5096889;28;20176;-82
2022/04/22 09:52:30;;;;;;;17.07;15.43;;;16.40;52.90;;;;;;5097265;28;20250;-82
2022/04/22 09:55:02;;;;;;;16.97;15.47;;;16.30;52.90;;;;;;5089306;28;20377;-82
2022/04/22 09:57:28;;;;;;;16.77;15.27;;;16.50;54.00;;;;;;5100534;28;20179;-82
2022/04/22 09:59:55;;;;;;;17.17;15.43;;;16.70;52.40;;;;;;5093141;28;20189;-83
2022/04/22 10:02:29;;;;;;;16.93;15.23;;;16.80;51.20;;;;;;5071791;28;20229;-83
2022/04/22 10:04:56;;;;;;;16.73;15.23;;;16.80;51.60;;;;;;5088078;28;20174;-83
2022/04/22 10:07:32;;;;;;;16.90;15.43;;;17.10;51.40;;;;;;5090652;28;20540;-82
2022/04/22 10:10:01;;;;;;;17.17;15.03;;;17.40;50.00;;;;;;5097565;28;20198;-82
2022/04/22 10:12:29;;;;;;;15.97;14.47;;;17.60;49.40;;;;;;5069509;28;20228;-82
2022/04/22 10:14:58;;;;;;;16.47;14.87;;;17.30;48.80;;;;;;5096194;28;20254;-83
2022/04/22 10:17:23;;;;;;;16.77;14.27;;;17.10;50.20;;;;;;5091301;28;20217;-82
2022/04/22 10:19:50;;;;;;;16.07;14.50;;;17.40;49.50;;;;;;5116099;28;20190;-83
2022/04/22 10:22:18;;;;;;;15.60;14.17;;;17.60;49.50;;;;;;5097400;28;20216;-82
2022/04/22 10:24:44;;;;;;;15.80;14.30;;;17.80;47.70;;;;;;5107208;28;20189;-82
2022/04/22 10:27:10;;;;;;;15.23;13.87;;;17.90;48.10;;;;;;5105372;28;20195;-84
2022/04/22 10:29:40;;;;;;;15.40;13.90;;;18.20;47.00;;;;;;5086107;28;20340;-82
2022/04/22 10:32:07;;;;;;;16.77;15.03;;;18.50;47.70;;;;;;5074600;28;20197;-82
2022/04/22 10:34:41;;;;;;;14.57;13.10;;;18.80;45.20;;;;;;5103836;28;20215;-82
2022/04/22 10:37:23;;;;;;;15.97;14.37;;;18.70;45.40;;;;;;5090265;28;20184;-82
2022/04/22 10:39:51;;;;;;;13.70;12.43;;;18.20;46.30;;;;;;5095681;28;20226;-83
2022/04/22 10:42:17;;;;;;;16.53;14.53;;;18.30;46.80;;;;;;5097445;28;20260;-83
2022/04/22 10:47:42;;;;;;;14.97;13.57;;;18.40;45.80;;;;;;5092450;28;20281;-83
2022/04/22 10:50:26;;;;;;;14.80;13.60;;;18.60;46.20;;;;;;5069201;28;20233;-83
2022/04/22 10:53:23;;;;;;;14.23;12.97;;;19.00;44.20;;;;;;5088711;28;20208;-83
2022/04/22 10:55:49;;;;;;;15.00;13.67;;;19.30;44.00;;;;;;5095537;28;20225;-83
2022/04/22 10:58:19;;;;;;;15.10;13.70;;;19.30;44.10;;;;;;5069592;28;20191;-82
2022/04/22 11:00:47;;;;;;;13.80;12.53;;;19.40;43.10;;;;;;5086454;28;20404;-82
2022/04/22 11:03:13;;;;;;;15.20;13.60;;;19.10;42.90;;;;;;5090718;28;20518;-82
2022/04/22 11:05:49;;;;;;;13.83;12.53;;;19.00;43.70;;;;;;5070848;28;20198;-83
2022/04/22 11:08:19;;;;;;;15.03;12.40;;;18.80;43.80;;;;;;5069542;28;20227;-83
2022/04/22 11:10:48;;;;;;;13.03;11.83;;;19.20;44.00;;;;;;5093522;28;20177;-83
2022/04/22 11:13:38;;;;;;;12.63;11.60;;;19.50;43.40;;;;;;5087915;28;20289;-82
2022/04/22 11:16:07;;;;;;;13.90;12.73;;;19.40;43.60;;;;;;5094456;28;20182;-84
2022/04/22 11:18:34;;;;;;;12.63;11.63;;;19.70;42.90;;;;;;5099855;28;20280;-84
2022/04/22 11:21:02;;;;;;;12.50;11.47;;;19.80;43.10;;;;;;5104746;28;20194;-85
2022/04/22 11:23:40;;;;;;;12.52;11.52;;;19.90;42.20;;;;;;5087380;28;20178;-85
2022/04/22 11:26:07;;;;;;;12.55;11.45;;;20.40;40.90;;;;;;5100891;28;20177;-84
2022/04/22 11:28:40;;;;;;;13.50;12.30;;;20.60;41.00;;;;;;5090161;28;20216;-85
2022/04/22 11:31:10;;;;;;;14.07;12.98;;;20.90;39.90;;;;;;5103912;28;20175;-84
2022/04/22 11:33:54;;;;;;;13.93;12.60;;;21.20;38.70;;;;;;5089722;28;20183;-85
2022/04/22 11:36:20;;;;;;;12.85;11.70;;;21.30;38.50;;;;;;5106851;28;20586;-85
2022/04/22 11:38:52;;;;;;;12.52;11.15;;;21.50;38.30;;;;;;5080994;28;20278;-84
2022/04/22 11:41:18;;;;;;;18.80;12.40;;;21.60;37.70;;;;;;5103750;28;20238;-85
2022/04/22 11:43:46;;;;;;;12.50;11.35;;;21.30;38.20;;;;;;5094775;28;20253;-85
2022/04/22 11:46:13;;;;;;;13.18;11.77;;;21.50;38.40;;;;;;5108744;28;20175;-85
2022/04/22 11:48:50;;;;;;;13.98;12.77;;;21.50;38.10;;;;;;5101323;28;20202;-85
2022/04/22 11:51:21;;;;;;;14.15;13.05;;;21.70;38.30;;;;;;5106053;28;20198;-84
2022/04/22 11:53:50;;;;;;;12.85;11.73;;;21.60;38.10;;;;;;5074446;28;20204;-84
2022/04/22 11:56:23;;;;;;;13.27;11.90;;;22.00;37.70;;;;;;5076174;28;20658;-85
2022/04/22 11:58:56;;;;;;;12.90;11.80;;;21.90;36.90;;;;;;5102101;28;20180;-85
2022/04/22 12:10:01;;;;;;;13.05;11.85;;;22.40;36.70;;;;;;5102494;28;20283;-85
2022/04/22 12:12:34;;;;;;;12.57;11.57;;;22.50;36.50;;;;;;5088621;28;20208;-84
2022/04/22 12:15:04;;;;;;;13.00;11.90;;;22.40;36.80;;;;;;5094194;28;20180;-85
2022/04/22 12:17:30;;;;;;;11.73;10.82;;;22.20;37.10;;;;;;5087937;28;20261;-85
2022/04/22 12:19:56;;;;;;;12.38;11.32;;;22.60;37.10;;;;;;5092044;28;20209;-84
2022/04/22 12:22:25;;;;;;;12.82;11.73;;;22.70;35.50;;;;;;5100101;28;20226;-84
2022/04/22 12:25:10;;;;;;;12.65;11.45;;;22.50;36.00;;;;;;5097210;28;20189;-84
2022/04/22 12:27:37;;;;;;;12.77;11.82;;;22.80;35.70;;;;;;5103901;28;20202;-84
2022/04/22 12:30:04;;;;;;;14.32;12.63;;;22.70;35.50;;;;;;5099695;28;20185;-84
2022/04/22 12:32:31;;;;;;;32.42;15.10;;;23.10;34.80;;;;;;5093114;28;20202;-85
2022/04/22 12:35:14;;;;;;;17.30;13.98;;;23.00;35.60;;;;;;5093061;28;20264;-84
2022/04/22 12:37:50;;;;;;;13.20;11.73;;;22.90;35.60;;;;;;5083807;28;20178;-84
2022/04/22 12:40:19;;;;;;;13.10;12.00;;;23.40;35.30;;;;;;5083209;28;20197;-84
2022/04/22 12:42:45;;;;;;;14.02;11.55;;;23.20;34.10;;;;;;5096668;28;20203;-84
2022/04/22 12:53:47;;;;;;;12.32;11.25;;;23.40;34.00;;;;;;5091674;28;20205;-85
2022/04/22 12:56:14;;;;;;;13.63;11.82;;;23.50;34.40;;;;;;5098145;28;20202;-85
2022/04/22 12:58:54;;;;;;;59.03;24.70;;;23.10;34.90;;;;;;5095854;28;20179;-85
2022/04/22 13:01:38;;;;;;;13.43;12.15;;;23.40;34.30;;;;;;5101850;28;20202;-85
2022/04/22 13:04:18;;;;;;;10.40;9.57;;;23.20;34.00;;;;;;5082601;28;20196;-85
2022/04/22 13:06:45;;;;;;;20.10;12.07;;;23.40;34.30;;;;;;5100124;28;20174;-85
2022/04/22 13:09:13;;;;;;;71.25;24.00;;;23.60;34.20;;;;;;5099037;28;20198;-85
2022/04/22 13:11:45;;;;;;;12.45;11.52;;;24.30;32.70;;;;;;5098321;28;20306;-85
2022/04/22 13:14:12;;;;;;;15.85;12.18;;;24.60;31.80;;;;;;5107085;28;20215;-85
2022/04/22 13:16:37;;;;;;;23.33;13.48;;;24.70;31.90;;;;;;5097460;28;20218;-85
2022/04/22 13:19:04;;;;;;;11.93;10.93;;;25.00;31.30;;;;;;5086582;28;20191;-86
2022/04/22 13:21:30;;;;;;;19.98;12.40;;;25.30;30.50;;;;;;5092216;28;20229;-85
2022/04/22 13:23:56;;;;;;;12.70;11.38;;;25.40;30.40;;;;;;5096409;28;20179;-85
2022/04/22 13:26:23;;;;;;;13.43;12.30;;;25.50;30.40;;;;;;5083274;28;20184;-85
2022/04/22 13:28:49;;;;;;;12.98;11.77;;;25.30;30.30;;;;;;5085165;28;20203;-86
2022/04/22 13:31:16;;;;;;;13.30;11.77;;;24.80;31.60;;;;;;5092600;28;20210;-85
2022/04/22 13:33:42;;;;;;;11.05;10.15;;;24.70;31.20;;;;;;5089717;28;20194;-85
2022/04/22 13:36:10;;;;;;;12.07;10.90;;;24.90;31.20;;;;;;5074848;28;20215;-85
2022/04/22 13:38:36;;;;;;;11.38;10.48;;;25.40;30.00;;;;;;5093071;28;20670;-85
2022/04/22 13:41:02;;;;;;;11.88;10.98;;;25.00;30.90;;;;;;5084153;28;20237;-86
2022/04/22 13:43:30;;;;;;;12.80;11.60;;;24.80;31.40;;;;;;5095622;28;20190;-86
2022/04/22 13:54:18;;;;;;;11.95;10.50;;;25.00;31.80;;;;;;5133889;22;20240;-84